sensor_id;sensor_type;location;lat;lon;timestamp;temperature;humidity
9881;DHT22;4979;51.014;6.678;2023-07-02T00:01:18;17.10;99.90
9881;DHT22;4979;51.014;6.678;2023-07-02T00:03:44;17.10;99.90
9881;DHT22;4979;51.014;6.678;2023-07-02T00:06:09;17.10;99.90
9881;DHT22;4979;51.014;6.678;2023-07-02T00:08:35;17.00;99.90
9881;DHT22;4979;51.014;6.678;2023-07-02T00:11:00;17.00;99.90
9881;DHT22;4979;51.014;6.678;2023-07-02T00:13:26;17.00;99.90
9881;DHT22;4979;51.014;6.678;2023-07-02T00:15:51;17.00;99.90
9881;DHT22;4979;51.014;6.678;2023-07-02T00:18:17;17.00;99.90
9881;DHT22;4979;51.014;6.678;2023-07-02T00:20:43;17.00;99.90
9881;DHT22;4979;51.014;6.678;2023-07-02T00:23:09;17.00;99.90
9881;DHT22;4979;51.014;6.678;2023-07-02T00:25:35;16.90;99.90
9881;DHT22;4979;51.014;6.678;2023-07-02T00:28:01;16.90;99.90
9881;DHT22;4979;51.014;6.678;2023-07-02T00:30:27;16.90;99.90
9881;DHT22;4979;51.014;6.678;2023-07-02T00:32:52;16.90;99.90
9881;DHT22;4979;51.014;6.678;2023-07-02T00:35:18;16.90;99.90
9881;DHT22;4979;51.014;6.678;2023-07-02T00:37:43;16.90;99.90
9881;DHT22;4979;51.014;6.678;2023-07-02T00:40:09;16.90;99.90
9881;DHT22;4979;51.014;6.678;2023-07-02T00:42:35;16.80;99.90
9881;DHT22;4979;51.014;6.678;2023-07-02T00:45:01;16.80;99.90
9881;DHT22;4979;51.014;6.678;2023-07-02T00:47:34;16.80;99.90
9881;DHT22;4979;51.014;6.678;2023-07-02T00:50:00;16.80;99.90
9881;DHT22;4979;51.014;6.678;2023-07-02T00:52:26;16.80;99.90
9881;DHT22;4979;51.014;6.678;2023-07-02T00:54:52;16.80;99.90
9881;DHT22;4979;51.014;6.678;2023-07-02T00:57:18;16.70;99.90
9881;DHT22;4979;51.014;6.678;2023-07-02T00:59:44;16.70;99.90
9881;DHT22;4979;51.014;6.678;2023-07-02T01:02:09;16.70;99.90
9881;DHT22;4979;51.014;6.678;2023-07-02T01:04:36;16.70;99.90
9881;DHT22;4979;51.014;6.678;2023-07-02T01:07:02;16.70;99.90
9881;DHT22;4979;51.014;6.678;2023-07-02T01:09:34;16.70;99.90
9881;DHT22;4979;51.014;6.678;2023-07-02T01:12:01;16.70;99.90
9881;DHT22;4979;51.014;6.678;2023-07-02T01:14:38;16.70;99.90
9881;DHT22;4979;51.014;6.678;2023-07-02T01:17:06;16.70;99.90
9881;DHT22;4979;51.014;6.678;2023-07-02T01:19:50;16.60;99.90
9881;DHT22;4979;51.014;6.678;2023-07-02T01:22:18;16.60;99.90
9881;DHT22;4979;51.014;6.678;2023-07-02T01:24:45;16.60;99.90
9881;DHT22;4979;51.014;6.678;2023-07-02T01:27:15;16.60;99.90
9881;DHT22;4979;51.014;6.678;2023-07-02T01:29:41;16.60;99.90
9881;DHT22;4979;51.014;6.678;2023-07-02T01:32:07;16.60;99.90
9881;DHT22;4979;51.014;6.678;2023-07-02T01:34:34;16.50;99.90
9881;DHT22;4979;51.014;6.678;2023-07-02T01:37:00;16.50;99.90
9881;DHT22;4979;51.014;6.678;2023-07-02T01:39:26;16.50;99.90
9881;DHT22;4979;51.014;6.678;2023-07-02T01:41:53;16.50;99.90
9881;DHT22;4979;51.014;6.678;2023-07-02T01:44:19;16.50;99.90
9881;DHT22;4979;51.014;6.678;2023-07-02T01:46:46;16.50;99.90
9881;DHT22;4979;51.014;6.678;2023-07-02T01:49:17;16.40;99.90
9881;DHT22;4979;51.014;6.678;2023-07-02T01:51:50;16.40;99.90
9881;DHT22;4979;51.014;6.678;2023-07-02T01:54:15;16.40;99.90
9881;DHT22;4979;51.014;6.678;2023-07-02T01:56:41;16.40;99.90
9881;DHT22;4979;51.014;6.678;2023-07-02T01:59:06;16.40;99.90
9881;DHT22;4979;51.014;6.678;2023-07-02T02:01:32;16.40;99.90
9881;DHT22;4979;51.014;6.678;2023-07-02T02:03:58;16.40;99.90
9881;DHT22;4979;51.014;6.678;2023-07-02T02:06:24;16.30;99.90
9881;DHT22;4979;51.014;6.678;2023-07-02T02:08:49;16.30;99.90
9881;DHT22;4979;51.014;6.678;2023-07-02T02:11:15;16.30;99.90
9881;DHT22;4979;51.014;6.678;2023-07-02T02:13:40;16.30;99.90
9881;DHT22;4979;51.014;6.678;2023-07-02T02:16:06;16.20;99.90
9881;DHT22;4979;51.014;6.678;2023-07-02T02:18:31;16.20;99.90
9881;DHT22;4979;51.014;6.678;2023-07-02T02:20:57;16.20;99.90
9881;DHT22;4979;51.014;6.678;2023-07-02T02:23:23;16.20;99.90
9881;DHT22;4979;51.014;6.678;2023-07-02T02:25:48;16.10;99.90
9881;DHT22;4979;51.014;6.678;2023-07-02T02:28:14;16.10;99.90
9881;DHT22;4979;51.014;6.678;2023-07-02T02:30:39;16.10;99.90
9881;DHT22;4979;51.014;6.678;2023-07-02T02:33:05;16.00;99.90
9881;DHT22;4979;51.014;6.678;2023-07-02T02:35:30;16.00;99.90
9881;DHT22;4979;51.014;6.678;2023-07-02T02:37:56;16.00;99.90
9881;DHT22;4979;51.014;6.678;2023-07-02T02:40:22;15.90;99.90
9881;DHT22;4979;51.014;6.678;2023-07-02T02:42:47;15.90;99.90
9881;DHT22;4979;51.014;6.678;2023-07-02T02:45:13;15.80;99.90
9881;DHT22;4979;51.014;6.678;2023-07-02T02:47:38;15.80;99.90
9881;DHT22;4979;51.014;6.678;2023-07-02T02:50:05;15.80;99.90
9881;DHT22;4979;51.014;6.678;2023-07-02T02:52:31;15.80;99.90
9881;DHT22;4979;51.014;6.678;2023-07-02T02:54:57;15.70;99.90
9881;DHT22;4979;51.014;6.678;2023-07-02T02:57:22;15.70;99.90
9881;DHT22;4979;51.014;6.678;2023-07-02T02:59:48;15.70;99.90
9881;DHT22;4979;51.014;6.678;2023-07-02T03:02:13;15.70;99.90
9881;DHT22;4979;51.014;6.678;2023-07-02T03:04:39;15.70;99.90
9881;DHT22;4979;51.014;6.678;2023-07-02T03:07:06;15.70;99.90
9881;DHT22;4979;51.014;6.678;2023-07-02T03:09:32;15.70;99.90
9881;DHT22;4979;51.014;6.678;2023-07-02T03:11:58;15.70;99.90
9881;DHT22;4979;51.014;6.678;2023-07-02T03:14:23;15.70;99.90
9881;DHT22;4979;51.014;6.678;2023-07-02T03:16:49;15.70;99.90
9881;DHT22;4979;51.014;6.678;2023-07-02T03:19:14;15.70;99.90
9881;DHT22;4979;51.014;6.678;2023-07-02T03:21:43;15.80;99.90
9881;DHT22;4979;51.014;6.678;2023-07-02T03:24:09;15.80;99.90
9881;DHT22;4979;51.014;6.678;2023-07-02T03:26:38;15.80;99.90
9881;DHT22;4979;51.014;6.678;2023-07-02T03:29:04;15.80;99.90
9881;DHT22;4979;51.014;6.678;2023-07-02T03:31:29;15.80;99.90
9881;DHT22;4979;51.014;6.678;2023-07-02T03:33:55;15.80;99.90
9881;DHT22;4979;51.014;6.678;2023-07-02T03:36:20;15.80;99.90
9881;DHT22;4979;51.014;6.678;2023-07-02T03:38:46;15.80;99.90
9881;DHT22;4979;51.014;6.678;2023-07-02T03:41:12;15.80;99.90
9881;DHT22;4979;51.014;6.678;2023-07-02T03:43:37;15.90;99.90
9881;DHT22;4979;51.014;6.678;2023-07-02T03:46:03;15.80;99.90
9881;DHT22;4979;51.014;6.678;2023-07-02T03:48:28;15.90;99.90
9881;DHT22;4979;51.014;6.678;2023-07-02T03:50:54;15.90;99.90
9881;DHT22;4979;51.014;6.678;2023-07-02T03:53:19;15.90;99.90
9881;DHT22;4979;51.014;6.678;2023-07-02T03:55:45;15.90;99.90
9881;DHT22;4979;51.014;6.678;2023-07-02T03:58:10;15.90;99.90
9881;DHT22;4979;51.014;6.678;2023-07-02T04:00:36;15.90;99.90
9881;DHT22;4979;51.014;6.678;2023-07-02T04:03:01;16.00;99.90
9881;DHT22;4979;51.014;6.678;2023-07-02T04:05:27;16.10;99.90
9881;DHT22;4979;51.014;6.678;2023-07-02T04:07:53;16.00;99.90
9881;DHT22;4979;51.014;6.678;2023-07-02T04:10:18;16.00;99.90
9881;DHT22;4979;51.014;6.678;2023-07-02T04:12:44;16.10;99.90
9881;DHT22;4979;51.014;6.678;2023-07-02T04:15:10;16.10;99.90
9881;DHT22;4979;51.014;6.678;2023-07-02T04:17:35;16.10;99.90
9881;DHT22;4979;51.014;6.678;2023-07-02T04:20:03;16.10;99.90
9881;DHT22;4979;51.014;6.678;2023-07-02T04:22:29;16.20;99.90
9881;DHT22;4979;51.014;6.678;2023-07-02T04:24:55;16.20;99.90
9881;DHT22;4979;51.014;6.678;2023-07-02T04:27:21;16.20;99.90
9881;DHT22;4979;51.014;6.678;2023-07-02T04:29:47;16.20;99.90
9881;DHT22;4979;51.014;6.678;2023-07-02T04:32:13;16.20;99.90
9881;DHT22;4979;51.014;6.678;2023-07-02T04:34:38;16.20;99.90
9881;DHT22;4979;51.014;6.678;2023-07-02T04:37:04;16.30;99.90
9881;DHT22;4979;51.014;6.678;2023-07-02T04:39:30;16.30;99.90
9881;DHT22;4979;51.014;6.678;2023-07-02T04:41:56;16.30;99.90
9881;DHT22;4979;51.014;6.678;2023-07-02T04:44:21;16.40;99.90
9881;DHT22;4979;51.014;6.678;2023-07-02T04:46:57;16.50;99.90
9881;DHT22;4979;51.014;6.678;2023-07-02T04:49:22;16.60;99.90
9881;DHT22;4979;51.014;6.678;2023-07-02T04:51:48;16.70;99.90
9881;DHT22;4979;51.014;6.678;2023-07-02T04:54:13;16.70;99.90
9881;DHT22;4979;51.014;6.678;2023-07-02T04:56:39;16.70;99.90
9881;DHT22;4979;51.014;6.678;2023-07-02T04:59:05;16.70;99.90
9881;DHT22;4979;51.014;6.678;2023-07-02T05:01:30;16.70;99.90
9881;DHT22;4979;51.014;6.678;2023-07-02T05:03:56;16.70;99.90
9881;DHT22;4979;51.014;6.678;2023-07-02T05:06:21;16.80;99.90
9881;DHT22;4979;51.014;6.678;2023-07-02T05:08:47;16.90;99.90
9881;DHT22;4979;51.014;6.678;2023-07-02T05:11:12;17.00;99.90
9881;DHT22;4979;51.014;6.678;2023-07-02T05:13:38;17.10;99.90
9881;DHT22;4979;51.014;6.678;2023-07-02T05:16:03;17.10;99.90
9881;DHT22;4979;51.014;6.678;2023-07-02T05:18:29;17.20;99.90
9881;DHT22;4979;51.014;6.678;2023-07-02T05:20:54;17.20;99.90
9881;DHT22;4979;51.014;6.678;2023-07-02T05:23:20;17.30;99.90
9881;DHT22;4979;51.014;6.678;2023-07-02T05:25:46;17.30;99.90
9881;DHT22;4979;51.014;6.678;2023-07-02T05:28:11;17.20;99.90
9881;DHT22;4979;51.014;6.678;2023-07-02T05:30:37;17.20;99.90
9881;DHT22;4979;51.014;6.678;2023-07-02T05:33:02;17.20;99.90
9881;DHT22;4979;51.014;6.678;2023-07-02T05:35:28;17.20;99.90
9881;DHT22;4979;51.014;6.678;2023-07-02T05:37:53;17.20;99.90
9881;DHT22;4979;51.014;6.678;2023-07-02T05:40:19;17.20;99.90
9881;DHT22;4979;51.014;6.678;2023-07-02T05:42:44;17.30;99.90
9881;DHT22;4979;51.014;6.678;2023-07-02T05:45:10;17.30;99.90
9881;DHT22;4979;51.014;6.678;2023-07-02T05:47:36;17.40;99.90
9881;DHT22;4979;51.014;6.678;2023-07-02T05:50:01;17.50;99.90
9881;DHT22;4979;51.014;6.678;2023-07-02T05:52:27;17.50;99.90
9881;DHT22;4979;51.014;6.678;2023-07-02T05:54:53;17.70;99.90
9881;DHT22;4979;51.014;6.678;2023-07-02T05:57:18;17.70;99.90
9881;DHT22;4979;51.014;6.678;2023-07-02T05:59:44;17.70;99.90
9881;DHT22;4979;51.014;6.678;2023-07-02T06:02:09;17.70;99.90
9881;DHT22;4979;51.014;6.678;2023-07-02T06:04:35;17.70;99.90
9881;DHT22;4979;51.014;6.678;2023-07-02T06:07:00;17.80;99.90
9881;DHT22;4979;51.014;6.678;2023-07-02T06:09:26;17.90;99.90
9881;DHT22;4979;51.014;6.678;2023-07-02T06:11:52;18.00;99.90
9881;DHT22;4979;51.014;6.678;2023-07-02T06:14:17;18.00;99.90
9881;DHT22;4979;51.014;6.678;2023-07-02T06:16:43;18.10;99.90
9881;DHT22;4979;51.014;6.678;2023-07-02T06:19:09;18.00;99.90
9881;DHT22;4979;51.014;6.678;2023-07-02T06:21:34;18.00;99.90
9881;DHT22;4979;51.014;6.678;2023-07-02T06:24:01;18.10;99.90
9881;DHT22;4979;51.014;6.678;2023-07-02T06:26:27;18.10;99.90
9881;DHT22;4979;51.014;6.678;2023-07-02T06:28:52;18.20;99.90
9881;DHT22;4979;51.014;6.678;2023-07-02T06:31:18;18.30;99.90
9881;DHT22;4979;51.014;6.678;2023-07-02T06:33:44;18.40;99.90
9881;DHT22;4979;51.014;6.678;2023-07-02T06:36:09;18.50;99.90
9881;DHT22;4979;51.014;6.678;2023-07-02T06:38:36;18.60;99.90
9881;DHT22;4979;51.014;6.678;2023-07-02T06:41:01;18.40;99.90
9881;DHT22;4979;51.014;6.678;2023-07-02T06:43:27;18.60;99.90
9881;DHT22;4979;51.014;6.678;2023-07-02T06:45:52;18.60;99.90
9881;DHT22;4979;51.014;6.678;2023-07-02T06:48:18;18.50;99.90
9881;DHT22;4979;51.014;6.678;2023-07-02T06:50:46;18.50;99.90
9881;DHT22;4979;51.014;6.678;2023-07-02T06:53:12;18.60;99.90
9881;DHT22;4979;51.014;6.678;2023-07-02T06:55:38;18.50;99.90
9881;DHT22;4979;51.014;6.678;2023-07-02T06:58:05;18.70;99.90
9881;DHT22;4979;51.014;6.678;2023-07-02T07:00:32;18.90;99.90
9881;DHT22;4979;51.014;6.678;2023-07-02T07:03:01;18.80;99.90
9881;DHT22;4979;51.014;6.678;2023-07-02T07:05:27;18.70;99.90
9881;DHT22;4979;51.014;6.678;2023-07-02T07:07:52;18.80;99.90
9881;DHT22;4979;51.014;6.678;2023-07-02T07:10:18;18.90;99.90
9881;DHT22;4979;51.014;6.678;2023-07-02T07:12:45;19.00;99.90
9881;DHT22;4979;51.014;6.678;2023-07-02T07:15:12;19.00;99.90
9881;DHT22;4979;51.014;6.678;2023-07-02T07:17:37;19.10;99.90
9881;DHT22;4979;51.014;6.678;2023-07-02T07:20:03;19.10;99.90
9881;DHT22;4979;51.014;6.678;2023-07-02T07:22:30;19.30;99.90
9881;DHT22;4979;51.014;6.678;2023-07-02T07:24:56;19.30;99.90
9881;DHT22;4979;51.014;6.678;2023-07-02T07:27:21;19.40;99.90
9881;DHT22;4979;51.014;6.678;2023-07-02T07:29:47;19.20;99.90
9881;DHT22;4979;51.014;6.678;2023-07-02T07:32:13;19.20;99.90
9881;DHT22;4979;51.014;6.678;2023-07-02T07:34:38;19.30;99.90
9881;DHT22;4979;51.014;6.678;2023-07-02T07:37:04;19.50;99.90
9881;DHT22;4979;51.014;6.678;2023-07-02T07:39:30;19.50;99.90
9881;DHT22;4979;51.014;6.678;2023-07-02T07:41:55;19.30;99.90
9881;DHT22;4979;51.014;6.678;2023-07-02T07:44:21;19.40;99.90
9881;DHT22;4979;51.014;6.678;2023-07-02T07:46:47;19.20;99.90
9881;DHT22;4979;51.014;6.678;2023-07-02T07:49:13;19.30;99.90
9881;DHT22;4979;51.014;6.678;2023-07-02T07:51:39;19.40;99.90
9881;DHT22;4979;51.014;6.678;2023-07-02T07:54:05;19.60;99.90
9881;DHT22;4979;51.014;6.678;2023-07-02T07:56:30;19.40;99.90
9881;DHT22;4979;51.014;6.678;2023-07-02T07:58:56;19.40;99.90
9881;DHT22;4979;51.014;6.678;2023-07-02T08:01:21;19.40;99.90
9881;DHT22;4979;51.014;6.678;2023-07-02T08:03:47;19.40;99.90
9881;DHT22;4979;51.014;6.678;2023-07-02T08:06:12;19.90;99.90
9881;DHT22;4979;51.014;6.678;2023-07-02T08:08:38;20.20;99.90
9881;DHT22;4979;51.014;6.678;2023-07-02T08:11:03;20.10;99.90
9881;DHT22;4979;51.014;6.678;2023-07-02T08:13:29;20.20;99.90
9881;DHT22;4979;51.014;6.678;2023-07-02T08:15:54;20.40;99.90
9881;DHT22;4979;51.014;6.678;2023-07-02T08:18:20;20.40;99.90
9881;DHT22;4979;51.014;6.678;2023-07-02T08:20:46;20.40;99.90
9881;DHT22;4979;51.014;6.678;2023-07-02T08:23:11;20.30;99.90
9881;DHT22;4979;51.014;6.678;2023-07-02T08:25:37;20.20;99.90
9881;DHT22;4979;51.014;6.678;2023-07-02T08:28:02;20.20;99.90
9881;DHT22;4979;51.014;6.678;2023-07-02T08:30:28;20.10;99.90
9881;DHT22;4979;51.014;6.678;2023-07-02T08:32:54;20.30;99.90
9881;DHT22;4979;51.014;6.678;2023-07-02T08:35:20;20.40;99.90
9881;DHT22;4979;51.014;6.678;2023-07-02T08:37:46;20.50;99.90
9881;DHT22;4979;51.014;6.678;2023-07-02T08:40:21;20.80;99.90
9881;DHT22;4979;51.014;6.678;2023-07-02T08:42:46;20.80;99.90
9881;DHT22;4979;51.014;6.678;2023-07-02T08:45:16;20.70;99.90
9881;DHT22;4979;51.014;6.678;2023-07-02T08:47:45;20.80;99.90
9881;DHT22;4979;51.014;6.678;2023-07-02T08:50:16;21.00;99.90
9881;DHT22;4979;51.014;6.678;2023-07-02T08:52:42;20.90;99.90
9881;DHT22;4979;51.014;6.678;2023-07-02T08:55:10;21.00;99.90
9881;DHT22;4979;51.014;6.678;2023-07-02T08:57:35;21.00;99.90
9881;DHT22;4979;51.014;6.678;2023-07-02T09:00:07;20.90;99.90
9881;DHT22;4979;51.014;6.678;2023-07-02T09:02:34;20.90;99.90
9881;DHT22;4979;51.014;6.678;2023-07-02T09:05:00;21.00;99.90
9881;DHT22;4979;51.014;6.678;2023-07-02T09:07:26;20.90;99.90
9881;DHT22;4979;51.014;6.678;2023-07-02T09:09:52;20.60;99.90
9881;DHT22;4979;51.014;6.678;2023-07-02T09:15:01;20.90;99.90
9881;DHT22;4979;51.014;6.678;2023-07-02T09:17:29;21.20;99.90
9881;DHT22;4979;51.014;6.678;2023-07-02T09:19:56;21.40;99.90
9881;DHT22;4979;51.014;6.678;2023-07-02T09:22:22;21.20;99.90
9881;DHT22;4979;51.014;6.678;2023-07-02T09:24:56;21.60;99.90
9881;DHT22;4979;51.014;6.678;2023-07-02T09:27:38;21.40;99.90
9881;DHT22;4979;51.014;6.678;2023-07-02T09:32:33;20.70;99.90
9881;DHT22;4979;51.014;6.678;2023-07-02T09:34:59;20.60;99.90
9881;DHT22;4979;51.014;6.678;2023-07-02T09:37:26;20.40;99.90
9881;DHT22;4979;51.014;6.678;2023-07-02T09:39:53;20.10;99.90
9881;DHT22;4979;51.014;6.678;2023-07-02T09:42:20;20.20;99.90
9881;DHT22;4979;51.014;6.678;2023-07-02T09:44:46;20.30;99.90
9881;DHT22;4979;51.014;6.678;2023-07-02T09:47:13;20.20;99.90
9881;DHT22;4979;51.014;6.678;2023-07-02T09:49:43;20.30;99.90
9881;DHT22;4979;51.014;6.678;2023-07-02T09:52:11;20.50;99.90
9881;DHT22;4979;51.014;6.678;2023-07-02T09:54:38;20.70;99.90
9881;DHT22;4979;51.014;6.678;2023-07-02T09:57:05;21.10;99.90
9881;DHT22;4979;51.014;6.678;2023-07-02T09:59:34;20.90;99.90
9881;DHT22;4979;51.014;6.678;2023-07-02T10:01:59;21.20;99.90
9881;DHT22;4979;51.014;6.678;2023-07-02T10:04:25;20.70;99.90
9881;DHT22;4979;51.014;6.678;2023-07-02T10:06:54;20.80;99.90
9881;DHT22;4979;51.014;6.678;2023-07-02T10:09:25;20.40;99.90
9881;DHT22;4979;51.014;6.678;2023-07-02T10:11:59;20.20;99.90
9881;DHT22;4979;51.014;6.678;2023-07-02T10:14:24;20.20;99.90
9881;DHT22;4979;51.014;6.678;2023-07-02T10:16:54;20.00;99.90
9881;DHT22;4979;51.014;6.678;2023-07-02T10:19:20;20.00;99.90
9881;DHT22;4979;51.014;6.678;2023-07-02T10:22:00;20.30;99.90
9881;DHT22;4979;51.014;6.678;2023-07-02T10:24:25;20.60;99.90
9881;DHT22;4979;51.014;6.678;2023-07-02T10:26:57;20.80;99.90
9881;DHT22;4979;51.014;6.678;2023-07-02T10:29:23;21.50;99.90
9881;DHT22;4979;51.014;6.678;2023-07-02T10:31:51;21.80;99.90
9881;DHT22;4979;51.014;6.678;2023-07-02T10:34:27;22.00;99.90
9881;DHT22;4979;51.014;6.678;2023-07-02T10:36:56;22.00;99.90
9881;DHT22;4979;51.014;6.678;2023-07-02T10:39:21;21.80;99.90
9881;DHT22;4979;51.014;6.678;2023-07-02T10:41:47;21.80;99.90
9881;DHT22;4979;51.014;6.678;2023-07-02T10:44:13;21.60;99.90
9881;DHT22;4979;51.014;6.678;2023-07-02T10:46:48;21.60;99.90
9881;DHT22;4979;51.014;6.678;2023-07-02T10:49:17;21.50;99.90
9881;DHT22;4979;51.014;6.678;2023-07-02T10:51:43;21.20;99.90
9881;DHT22;4979;51.014;6.678;2023-07-02T10:54:08;21.30;99.90
9881;DHT22;4979;51.014;6.678;2023-07-02T10:56:34;21.60;99.90
9881;DHT22;4979;51.014;6.678;2023-07-02T10:59:00;21.90;99.90
9881;DHT22;4979;51.014;6.678;2023-07-02T11:01:31;21.90;99.90
9881;DHT22;4979;51.014;6.678;2023-07-02T11:04:02;22.00;99.90
9881;DHT22;4979;51.014;6.678;2023-07-02T11:06:28;21.90;99.90
9881;DHT22;4979;51.014;6.678;2023-07-02T11:08:54;22.70;99.90
9881;DHT22;4979;51.014;6.678;2023-07-02T11:11:21;21.50;99.90
9881;DHT22;4979;51.014;6.678;2023-07-02T11:13:48;21.30;99.90
9881;DHT22;4979;51.014;6.678;2023-07-02T11:18:43;20.70;99.90
9881;DHT22;4979;51.014;6.678;2023-07-02T11:21:12;20.70;99.90
9881;DHT22;4979;51.014;6.678;2023-07-02T11:23:37;21.00;99.90
9881;DHT22;4979;51.014;6.678;2023-07-02T11:26:03;21.20;99.90
9881;DHT22;4979;51.014;6.678;2023-07-02T11:28:30;21.40;99.90
9881;DHT22;4979;51.014;6.678;2023-07-02T11:30:57;21.60;99.90
9881;DHT22;4979;51.014;6.678;2023-07-02T11:33:36;21.80;99.90
9881;DHT22;4979;51.014;6.678;2023-07-02T11:36:02;21.80;99.90
9881;DHT22;4979;51.014;6.678;2023-07-02T11:38:28;22.00;99.90
9881;DHT22;4979;51.014;6.678;2023-07-02T11:40:54;22.20;99.90
9881;DHT22;4979;51.014;6.678;2023-07-02T11:43:19;21.00;99.90
9881;DHT22;4979;51.014;6.678;2023-07-02T11:45:45;22.50;99.90
9881;DHT22;4979;51.014;6.678;2023-07-02T11:48:11;22.50;99.90
9881;DHT22;4979;51.014;6.678;2023-07-02T11:50:36;22.30;99.90
9881;DHT22;4979;51.014;6.678;2023-07-02T11:53:02;22.60;99.90
9881;DHT22;4979;51.014;6.678;2023-07-02T11:55:28;22.60;99.90
9881;DHT22;4979;51.014;6.678;2023-07-02T11:57:53;22.20;99.90
9881;DHT22;4979;51.014;6.678;2023-07-02T12:00:19;22.90;99.90
9881;DHT22;4979;51.014;6.678;2023-07-02T12:02:45;23.20;99.90
9881;DHT22;4979;51.014;6.678;2023-07-02T12:05:11;23.10;99.90
9881;DHT22;4979;51.014;6.678;2023-07-02T12:07:36;23.00;98.80
9881;DHT22;4979;51.014;6.678;2023-07-02T12:10:02;23.20;98.80
9881;DHT22;4979;51.014;6.678;2023-07-02T12:12:27;23.10;98.00
9881;DHT22;4979;51.014;6.678;2023-07-02T12:14:53;23.50;97.80
9881;DHT22;4979;51.014;6.678;2023-07-02T12:17:18;23.00;97.00
9881;DHT22;4979;51.014;6.678;2023-07-02T12:19:44;23.30;99.00
9881;DHT22;4979;51.014;6.678;2023-07-02T12:22:09;23.50;97.50
9881;DHT22;4979;51.014;6.678;2023-07-02T12:24:35;23.40;96.40
9881;DHT22;4979;51.014;6.678;2023-07-02T12:27:00;23.30;96.10
9881;DHT22;4979;51.014;6.678;2023-07-02T12:29:26;23.30;96.60
9881;DHT22;4979;51.014;6.678;2023-07-02T12:31:51;23.40;96.30
9881;DHT22;4979;51.014;6.678;2023-07-02T12:34:17;23.50;96.20
9881;DHT22;4979;51.014;6.678;2023-07-02T12:36:43;23.40;97.00
9881;DHT22;4979;51.014;6.678;2023-07-02T12:39:08;23.50;97.30
9881;DHT22;4979;51.014;6.678;2023-07-02T12:41:34;23.50;97.00
9881;DHT22;4979;51.014;6.678;2023-07-02T12:44:00;23.50;97.20
9881;DHT22;4979;51.014;6.678;2023-07-02T12:46:25;23.80;97.60
9881;DHT22;4979;51.014;6.678;2023-07-02T12:48:51;23.90;96.50
9881;DHT22;4979;51.014;6.678;2023-07-02T12:51:17;23.80;97.80
9881;DHT22;4979;51.014;6.678;2023-07-02T12:53:42;23.80;96.70
9881;DHT22;4979;51.014;6.678;2023-07-02T12:56:08;24.00;97.50
9881;DHT22;4979;51.014;6.678;2023-07-02T12:58:33;23.90;96.70
9881;DHT22;4979;51.014;6.678;2023-07-02T13:00:59;24.10;97.20
9881;DHT22;4979;51.014;6.678;2023-07-02T13:03:24;24.20;96.00
9881;DHT22;4979;51.014;6.678;2023-07-02T13:05:50;24.00;96.00
9881;DHT22;4979;51.014;6.678;2023-07-02T13:08:16;23.90;96.70
9881;DHT22;4979;51.014;6.678;2023-07-02T13:10:42;24.10;97.20
9881;DHT22;4979;51.014;6.678;2023-07-02T13:13:08;24.40;98.30
9881;DHT22;4979;51.014;6.678;2023-07-02T13:15:33;24.60;98.20
9881;DHT22;4979;51.014;6.678;2023-07-02T13:18:00;24.50;96.80
9881;DHT22;4979;51.014;6.678;2023-07-02T13:20:26;24.40;96.80
9881;DHT22;4979;51.014;6.678;2023-07-02T13:22:51;24.40;96.40
9881;DHT22;4979;51.014;6.678;2023-07-02T13:25:17;24.30;95.80
9881;DHT22;4979;51.014;6.678;2023-07-02T13:27:43;24.70;97.30
9881;DHT22;4979;51.014;6.678;2023-07-02T13:30:08;24.80;97.30
9881;DHT22;4979;51.014;6.678;2023-07-02T13:32:34;24.00;95.80
9881;DHT22;4979;51.014;6.678;2023-07-02T13:34:59;24.40;96.00
9881;DHT22;4979;51.014;6.678;2023-07-02T13:37:25;24.30;95.50
9881;DHT22;4979;51.014;6.678;2023-07-02T13:39:51;24.50;97.30
9881;DHT22;4979;51.014;6.678;2023-07-02T13:42:16;24.50;95.90
9881;DHT22;4979;51.014;6.678;2023-07-02T13:44:43;23.80;96.00
9881;DHT22;4979;51.014;6.678;2023-07-02T13:47:08;23.70;95.70
9881;DHT22;4979;51.014;6.678;2023-07-02T13:49:34;23.80;97.40
9881;DHT22;4979;51.014;6.678;2023-07-02T13:52:00;24.10;96.20
9881;DHT22;4979;51.014;6.678;2023-07-02T13:54:26;24.30;96.30
9881;DHT22;4979;51.014;6.678;2023-07-02T13:56:52;23.90;94.80
9881;DHT22;4979;51.014;6.678;2023-07-02T13:59:19;23.90;95.80
9881;DHT22;4979;51.014;6.678;2023-07-02T14:01:45;23.90;95.40
9881;DHT22;4979;51.014;6.678;2023-07-02T14:04:11;23.90;96.20
9881;DHT22;4979;51.014;6.678;2023-07-02T14:06:37;24.00;96.00
9881;DHT22;4979;51.014;6.678;2023-07-02T14:09:03;24.10;96.50
9881;DHT22;4979;51.014;6.678;2023-07-02T14:11:29;24.20;96.30
9881;DHT22;4979;51.014;6.678;2023-07-02T14:13:55;24.10;96.40
9881;DHT22;4979;51.014;6.678;2023-07-02T14:16:21;23.60;96.70
9881;DHT22;4979;51.014;6.678;2023-07-02T14:18:47;23.40;97.40
9881;DHT22;4979;51.014;6.678;2023-07-02T14:21:13;23.40;98.00
9881;DHT22;4979;51.014;6.678;2023-07-02T14:23:39;23.40;98.30
9881;DHT22;4979;51.014;6.678;2023-07-02T14:26:04;23.70;98.60
9881;DHT22;4979;51.014;6.678;2023-07-02T14:28:30;24.30;98.30
9881;DHT22;4979;51.014;6.678;2023-07-02T14:30:58;23.30;97.50
9881;DHT22;4979;51.014;6.678;2023-07-02T14:33:24;24.40;97.50
9881;DHT22;4979;51.014;6.678;2023-07-02T14:35:50;24.30;98.50
9881;DHT22;4979;51.014;6.678;2023-07-02T14:38:15;23.80;97.70
9881;DHT22;4979;51.014;6.678;2023-07-02T14:40:41;23.90;97.60
9881;DHT22;4979;51.014;6.678;2023-07-02T14:43:06;23.90;98.30
9881;DHT22;4979;51.014;6.678;2023-07-02T14:45:32;23.90;97.80
9881;DHT22;4979;51.014;6.678;2023-07-02T14:47:58;24.00;97.70
9881;DHT22;4979;51.014;6.678;2023-07-02T14:50:26;24.20;98.70
9881;DHT22;4979;51.014;6.678;2023-07-02T14:52:51;24.10;97.10
9881;DHT22;4979;51.014;6.678;2023-07-02T14:55:17;23.90;96.60
9881;DHT22;4979;51.014;6.678;2023-07-02T14:57:42;23.60;96.60
9881;DHT22;4979;51.014;6.678;2023-07-02T15:00:08;23.40;96.80
9881;DHT22;4979;51.014;6.678;2023-07-02T15:02:34;23.80;98.90
9881;DHT22;4979;51.014;6.678;2023-07-02T15:05:00;24.40;98.70
9881;DHT22;4979;51.014;6.678;2023-07-02T15:07:26;24.10;97.80
9881;DHT22;4979;51.014;6.678;2023-07-02T15:09:52;23.70;97.10
9881;DHT22;4979;51.014;6.678;2023-07-02T15:12:17;23.90;98.30
9881;DHT22;4979;51.014;6.678;2023-07-02T15:14:43;23.90;97.30
9881;DHT22;4979;51.014;6.678;2023-07-02T15:17:08;23.70;97.30
9881;DHT22;4979;51.014;6.678;2023-07-02T15:19:34;23.80;97.70
9881;DHT22;4979;51.014;6.678;2023-07-02T15:22:00;23.80;98.00
9881;DHT22;4979;51.014;6.678;2023-07-02T15:24:25;23.90;98.00
9881;DHT22;4979;51.014;6.678;2023-07-02T15:26:51;24.30;97.60
9881;DHT22;4979;51.014;6.678;2023-07-02T15:29:16;24.30;97.60
9881;DHT22;4979;51.014;6.678;2023-07-02T15:31:42;24.50;98.60
9881;DHT22;4979;51.014;6.678;2023-07-02T15:34:14;24.20;97.80
9881;DHT22;4979;51.014;6.678;2023-07-02T15:36:41;24.20;98.40
9881;DHT22;4979;51.014;6.678;2023-07-02T15:39:07;24.30;98.70
9881;DHT22;4979;51.014;6.678;2023-07-02T15:41:32;23.80;98.30
9881;DHT22;4979;51.014;6.678;2023-07-02T15:43:58;23.80;98.90
9881;DHT22;4979;51.014;6.678;2023-07-02T15:46:28;23.60;98.30
9881;DHT22;4979;51.014;6.678;2023-07-02T15:48:54;23.70;99.10
9881;DHT22;4979;51.014;6.678;2023-07-02T15:51:19;23.60;98.90
9881;DHT22;4979;51.014;6.678;2023-07-02T15:53:45;23.70;99.80
9881;DHT22;4979;51.014;6.678;2023-07-02T15:56:11;23.80;99.00
9881;DHT22;4979;51.014;6.678;2023-07-02T15:58:36;24.00;99.60
9881;DHT22;4979;51.014;6.678;2023-07-02T16:01:14;24.10;98.90
9881;DHT22;4979;51.014;6.678;2023-07-02T16:03:41;24.10;98.60